createdAt,value
2022-11-18T00:02:57.119Z,96388.88
2022-11-18T00:05:58.466Z,96397.53
2022-11-18T00:09:00.843Z,96392.31
2022-11-18T00:12:20.934Z,96396.66
2022-11-18T00:15:25.220Z,96389.75
2022-11-18T00:18:30.409Z,96392.31
2022-11-18T00:21:31.790Z,96400.13
2022-11-18T00:24:34.902Z,96401.81
2022-11-18T00:27:36.263Z,96406.94
2022-11-18T00:30:37.605Z,96403.44
2022-11-18T00:33:39.034Z,96411.19
2022-11-18T00:36:40.886Z,96405.19
2022-11-18T00:39:42.208Z,96423.38
2022-11-18T00:42:52.804Z,96420.78
2022-11-18T00:45:54.217Z,96408.69
2022-11-18T00:48:55.553Z,96405.19
2022-11-18T00:51:56.903Z,96404.28
2022-11-18T00:54:58.262Z,96404.34
2022-11-18T00:57:59.610Z,96408.75
2022-11-18T01:01:01.030Z,96405.19
2022-11-18T01:04:02.456Z,96410.41
2022-11-18T01:07:03.975Z,96417.34
2022-11-18T01:10:05.501Z,96427.78
2022-11-18T01:13:19.298Z,96432.91
2022-11-18T01:16:24.410Z,96430.31
2022-11-18T01:19:25.775Z,96435.53
2022-11-18T01:22:27.132Z,96438.16
2022-11-18T01:25:28.493Z,96442.50
2022-11-18T01:28:29.831Z,96442.47
2022-11-18T01:31:31.153Z,96450.22
2022-11-18T01:34:32.519Z,96458.78
2022-11-18T01:37:33.854Z,96468.31
2022-11-18T01:40:35.282Z,96471.81
2022-11-18T01:44:06.103Z,96473.50
2022-11-18T01:47:07.457Z,96482.16
2022-11-18T01:50:08.873Z,96484.00
2022-11-18T01:53:12.391Z,96487.41
2022-11-18T01:56:14.848Z,96495.19
2022-11-18T01:59:18.453Z,96497.84
2022-11-18T02:02:20.092Z,96493.38
2022-11-18T02:05:21.473Z,96497.78
2022-11-18T02:08:22.830Z,96501.22
2022-11-18T02:11:42.916Z,96502.00
2022-11-18T02:14:44.965Z,96504.59
2022-11-18T02:17:58.547Z,96512.34
2022-11-18T02:21:15.911Z,96520.03
2022-11-18T02:24:20.414Z,96522.47
2022-11-18T02:27:48.201Z,96526.72
2022-11-18T02:30:50.319Z,96537.81
2022-11-18T02:33:55.650Z,96537.13
2022-11-18T02:37:03.032Z,96539.94
2022-11-18T02:40:04.312Z,96553.91
2022-11-18T02:43:07.067Z,96553.16
2022-11-18T02:46:09.098Z,96551.53
2022-11-18T02:49:12.619Z,96556.06
2022-11-18T02:52:14.014Z,96559.59
2022-11-18T02:55:15.351Z,96559.81
2022-11-18T02:58:17.571Z,96555.56
2022-11-18T03:01:20.535Z,96559.06
2022-11-18T03:04:21.973Z,96562.66
2022-11-18T03:07:26.402Z,96564.34
2022-11-18T03:10:29.016Z,96565.31
2022-11-18T03:13:33.897Z,96570.66
2022-11-18T03:16:39.943Z,96568.88
2022-11-18T03:20:00.118Z,96567.22
2022-11-18T03:23:06.347Z,96567.28
2022-11-18T03:26:21.055Z,96568.16
2022-11-18T03:29:23.789Z,96576.94
2022-11-18T03:32:26.223Z,96592.59
2022-11-18T03:35:28.623Z,96590.94
2022-11-18T03:38:30.440Z,96603.06
2022-11-18T03:41:33.008Z,96606.66
2022-11-18T03:44:35.370Z,96619.63
2022-11-18T03:47:38.961Z,96617.09
2022-11-18T03:50:42.447Z,96630.91
2022-11-18T03:53:45.256Z,96625.78
2022-11-18T03:56:47.824Z,96630.88
2022-11-18T03:59:50.792Z,96643.81
2022-11-18T04:02:52.167Z,96644.78
2022-11-18T04:05:55.634Z,96643.91
2022-11-18T04:08:57.635Z,96648.13
2022-11-18T04:12:02.879Z,96649.81
2022-11-18T04:15:04.369Z,96638.63
2022-11-18T04:18:05.752Z,96647.28
2022-11-18T04:21:07.206Z,96650.72
2022-11-18T04:24:08.602Z,96658.47
2022-11-18T04:27:10.004Z,96647.19
2022-11-18T04:30:11.630Z,96650.69
2022-11-18T04:33:12.968Z,96657.59
2022-11-18T04:36:14.270Z,96658.50
2022-11-18T04:39:15.758Z,96659.41
2022-11-18T04:42:17.244Z,96659.41
2022-11-18T04:45:18.579Z,96662.00
2022-11-18T04:48:19.971Z,96672.28
2022-11-18T04:51:21.309Z,96667.13
2022-11-18T04:54:22.743Z,96678.31
2022-11-18T04:57:24.127Z,96681.72
2022-11-18T05:00:25.457Z,96681.72
2022-11-18T05:03:26.774Z,96682.75
2022-11-18T05:06:28.264Z,96690.56
2022-11-18T05:09:32.109Z,96697.63
2022-11-18T05:12:49.087Z,96704.81
2022-11-18T05:15:50.438Z,96711.03
2022-11-18T05:18:51.928Z,96714.56
2022-11-18T05:21:53.367Z,96720.63
2022-11-18T05:24:54.826Z,96722.38
2022-11-18T05:27:56.146Z,96717.19
2022-11-18T05:30:57.461Z,96712.94
2022-11-18T05:33:58.915Z,96725.91
2022-11-18T05:37:00.279Z,96728.47
2022-11-18T05:40:01.633Z,96734.50
2022-11-18T05:43:11.970Z,96737.97
2022-11-18T05:46:15.661Z,96744.88
2022-11-18T05:49:17.509Z,96759.56
2022-11-18T05:52:19.406Z,96760.47
2022-11-18T05:55:21.189Z,96758.75
2022-11-18T05:58:23.249Z,96761.47
2022-11-18T06:01:26.841Z,96764.91
2022-11-18T06:04:37.120Z,96763.00
2022-11-18T06:07:39.676Z,96752.53
2022-11-18T06:10:41.069Z,96751.72
2022-11-18T06:13:50.553Z,96760.34
2022-11-18T06:16:52.324Z,96767.28
2022-11-18T06:19:53.651Z,96774.22
2022-11-18T06:22:55.904Z,96775.97
2022-11-18T06:25:57.256Z,96773.38
2022-11-18T06:28:58.603Z,96775.13
2022-11-18T06:31:59.921Z,96785.47
2022-11-18T06:35:01.288Z,96784.59
2022-11-18T06:38:02.665Z,96788.09
2022-11-18T06:41:04.121Z,96790.66
2022-11-18T06:44:05.459Z,96794.13
2022-11-18T06:47:06.829Z,96812.31
2022-11-18T06:50:08.336Z,96805.34
2022-11-18T06:53:09.718Z,96823.44
2022-11-18T06:56:12.764Z,96817.34
2022-11-18T06:59:14.189Z,96815.72
2022-11-18T07:02:18.790Z,96804.38
2022-11-18T07:05:20.107Z,96810.44
2022-11-18T07:08:21.445Z,96830.34
2022-11-18T07:11:23.898Z,96833.81
2022-11-18T07:14:25.314Z,96840.69
2022-11-18T07:17:26.646Z,96839.75
2022-11-18T07:20:28.076Z,96838.09
2022-11-18T07:23:30.409Z,96849.31
2022-11-18T07:26:31.906Z,96850.13
2022-11-18T07:29:33.218Z,96853.53
2022-11-18T07:32:34.599Z,96854.41
2022-11-18T07:35:35.948Z,96863.03
2022-11-18T07:38:37.307Z,96865.59
2022-11-18T07:41:39.133Z,96873.25
2022-11-18T07:44:40.548Z,96879.28
2022-11-18T07:47:41.938Z,96888.81
2022-11-18T07:50:47.128Z,96889.69
2022-11-18T07:53:48.800Z,96891.44
2022-11-18T07:56:50.126Z,96901.78
2022-11-18T07:59:51.476Z,96895.59
2022-11-18T08:02:52.857Z,96911.06
2022-11-18T08:05:58.342Z,96916.25
2022-11-18T08:08:59.697Z,96917.03
2022-11-18T08:12:01.039Z,96914.41
2022-11-18T08:15:02.679Z,96913.50
2022-11-18T08:18:04.097Z,96928.16
2022-11-18T08:21:05.458Z,96938.41
2022-11-18T08:24:06.909Z,96935.00
2022-11-18T08:27:08.237Z,96939.34
2022-11-18T08:30:09.839Z,96942.72
2022-11-18T08:33:11.204Z,96955.66
2022-11-18T08:36:13.246Z,96954.75
2022-11-18T08:39:15.199Z,96957.34
2022-11-18T08:42:16.759Z,96948.69
2022-11-18T08:45:18.245Z,96952.09
2022-11-18T08:48:19.561Z,96955.41
2022-11-18T08:51:20.885Z,96957.13
2022-11-18T08:54:22.221Z,96958.78
2022-11-18T08:57:23.808Z,96952.63
2022-11-18T09:00:25.262Z,96962.09
2022-11-18T09:03:26.724Z,96953.41
2022-11-18T09:06:28.619Z,96962.91
2022-11-18T09:09:29.962Z,96966.19
2022-11-18T09:12:31.538Z,96967.00
2022-11-18T09:15:32.849Z,96972.94
2022-11-18T09:18:34.234Z,96967.72
2022-11-18T09:21:39.790Z,96971.19
2022-11-18T09:24:43.498Z,96975.47
2022-11-18T09:27:44.876Z,96978.88
2022-11-18T09:30:46.282Z,96979.69
2022-11-18T09:33:47.698Z,96983.94
2022-11-18T09:36:49.264Z,96978.59
2022-11-18T09:39:50.657Z,96985.47
2022-11-18T09:42:51.991Z,96992.28
2022-11-18T09:45:54.835Z,96991.25
2022-11-18T09:49:13.051Z,96993.72
2022-11-18T09:52:17.422Z,97000.41
2022-11-18T09:55:18.779Z,97008.97
2022-11-18T09:58:35.418Z,97002.41
2022-11-18T10:01:37.090Z,97011.16
2022-11-18T10:04:38.452Z,97016.47
2022-11-18T10:08:03.040Z,97028.72
2022-11-18T10:11:10.405Z,97026.75
2022-11-18T10:14:18.006Z,97041.41
2022-11-18T10:17:25.764Z,97044.63
2022-11-18T10:20:30.093Z,97058.88
2022-11-18T10:23:33.230Z,97070.06
2022-11-18T10:26:38.455Z,97079.50
2022-11-18T10:29:39.892Z,97078.75
2022-11-18T10:33:00.691Z,97089.09
2022-11-18T10:36:12.966Z,97084.72
2022-11-18T10:39:14.711Z,97090.97
2022-11-18T10:42:17.647Z,97096.00
2022-11-18T10:45:22.077Z,97096.00
2022-11-18T10:48:23.416Z,97098.44
2022-11-18T10:51:25.008Z,97093.84
2022-11-18T10:54:26.336Z,97105.56
2022-11-18T10:57:27.662Z,97103.72
2022-11-18T11:00:32.869Z,97114.84
2022-11-18T11:03:41.242Z,97113.88
2022-11-18T11:06:42.665Z,97120.63
2022-11-18T11:09:44.037Z,97125.25
2022-11-18T11:12:47.530Z,97131.34
2022-11-18T11:15:48.864Z,97129.72
2022-11-18T11:18:51.468Z,97140.28
2022-11-18T11:21:52.867Z,97128.13
2022-11-18T11:24:54.207Z,97137.72
2022-11-18T11:28:16.024Z,97141.66
2022-11-18T11:31:24.272Z,97150.31
2022-11-18T11:34:34.926Z,97152.34
2022-11-18T11:37:45.577Z,97156.06
2022-11-18T11:41:06.433Z,97160.47
2022-11-18T11:44:26.608Z,97171.75
2022-11-18T11:47:48.410Z,97175.31
2022-11-18T11:51:00.009Z,97171.88
2022-11-18T11:54:14.599Z,97178.75
2022-11-18T11:57:20.715Z,97175.84
2022-11-18T12:00:22.232Z,97179.63
2022-11-18T12:03:30.147Z,97175.13
2022-11-18T12:06:31.615Z,97193.34
2022-11-18T12:09:33.543Z,97212.06
2022-11-18T12:12:35.274Z,97216.44
2022-11-18T12:15:42.555Z,97234.91
2022-11-18T12:19:13.705Z,97226.00
2022-11-18T12:22:15.239Z,97229.75
2022-11-18T12:25:35.513Z,97221.13
2022-11-18T12:28:37.171Z,97220.94
2022-11-18T12:31:38.491Z,97219.50
2022-11-18T12:34:40.415Z,97223.69
2022-11-18T12:37:51.021Z,97214.66
2022-11-18T12:40:53.300Z,97233.50
2022-11-18T12:44:01.182Z,97238.47
2022-11-18T12:47:06.141Z,97251.09
2022-11-18T12:50:07.480Z,97244.34
2022-11-18T12:53:09.018Z,97240.81
2022-11-18T12:56:11.134Z,97232.78
2022-11-18T12:59:12.461Z,97235.22
2022-11-18T13:02:16.945Z,97240.41
2022-11-18T13:05:22.243Z,97243.13
2022-11-18T13:08:23.577Z,97240.56
2022-11-18T13:11:43.773Z,97241.41
2022-11-18T13:15:04.016Z,97236.25
2022-11-18T13:18:06.530Z,97237.31
2022-11-18T13:21:46.908Z,97230.34
2022-11-18T13:24:49.030Z,97227.09
2022-11-18T13:27:56.480Z,97235.88
2022-11-18T13:31:08.577Z,97250.81
2022-11-18T13:34:17.070Z,97253.41
2022-11-18T13:37:19.395Z,97253.41
2022-11-18T13:40:22.090Z,97261.00
2022-11-18T13:43:26.206Z,97256.50
2022-11-18T13:46:27.750Z,97254.66
2022-11-18T13:49:33.038Z,97267.66
2022-11-18T13:52:45.014Z,97277.94
2022-11-18T13:55:53.935Z,97270.97
2022-11-18T13:59:16.479Z,97276.31
2022-11-18T14:02:18.719Z,97261.31
2022-11-18T14:05:21.680Z,97255.84
2022-11-18T14:08:25.843Z,97243.91
2022-11-18T14:11:34.595Z,97233.56
2022-11-18T14:14:36.651Z,97225.19
2022-11-18T14:17:38.113Z,97224.28
2022-11-18T14:20:39.514Z,97213.94
2022-11-18T14:23:42.315Z,97220.25
2022-11-18T14:26:43.663Z,97222.75
2022-11-18T14:29:51.123Z,97226.38
2022-11-18T14:33:09.363Z,97221.84
2022-11-18T14:36:11.424Z,97224.41
2022-11-18T14:39:26.969Z,97215.81
2022-11-18T14:42:28.762Z,97224.47
2022-11-18T14:45:30.392Z,97218.38
2022-11-18T14:48:34.495Z,97219.97
2022-11-18T14:51:35.853Z,97222.63
2022-11-18T14:54:37.183Z,97221.78
2022-11-18T14:57:38.664Z,97227.81
2022-11-18T15:00:40.610Z,97219.03
2022-11-18T15:03:41.993Z,97218.97
2022-11-18T15:06:43.339Z,97214.75
2022-11-18T15:09:44.658Z,97207.84
2022-11-18T15:12:46.098Z,97206.91
2022-11-18T15:15:47.439Z,97212.19
2022-11-18T15:18:49.844Z,97212.25
2022-11-18T15:21:51.319Z,97202.88
2022-11-18T15:24:52.708Z,97198.53
2022-11-18T15:27:54.133Z,97203.78
2022-11-18T15:30:55.496Z,97203.88
2022-11-18T15:33:58.900Z,97199.47
2022-11-18T15:37:03.837Z,97204.72
2022-11-18T15:40:05.436Z,97201.31
2022-11-18T15:43:06.827Z,97200.44
2022-11-18T15:46:08.230Z,97206.53
2022-11-18T15:49:12.986Z,97209.25
2022-11-18T15:52:14.453Z,97220.56
2022-11-18T15:55:15.777Z,97217.13
2022-11-18T15:58:17.442Z,97210.22
2022-11-18T16:01:19.010Z,97216.31
2022-11-18T16:04:20.677Z,97214.66
2022-11-18T16:07:22.633Z,97225.03
2022-11-18T16:10:42.795Z,97227.56
2022-11-18T16:13:44.539Z,97233.66
2022-11-18T16:16:47.287Z,97229.38
2022-11-18T16:19:48.678Z,97224.13
2022-11-18T16:22:50.121Z,97222.44
2022-11-18T16:25:52.791Z,97224.19
2022-11-18T16:28:54.173Z,97225.91
2022-11-18T16:31:55.527Z,97231.09
2022-11-18T16:35:01.248Z,97230.25
2022-11-18T16:38:02.930Z,97234.56
2022-11-18T16:41:24.270Z,97236.31
2022-11-18T16:44:25.628Z,97238.03
2022-11-18T16:47:27.006Z,97238.00
2022-11-18T16:50:28.389Z,97239.78
2022-11-18T16:53:29.893Z,97248.44
2022-11-18T16:56:32.184Z,97264.00
2022-11-18T16:59:33.556Z,97270.03
2022-11-18T17:02:35.163Z,97270.94
2022-11-18T17:05:36.570Z,97272.69
2022-11-18T17:08:37.995Z,97270.94
2022-11-18T17:11:39.345Z,97271.84
2022-11-18T17:14:40.700Z,97281.31
2022-11-18T17:17:42.140Z,97293.47
2022-11-18T17:20:43.481Z,97283.03
2022-11-18T17:23:45.190Z,97280.47
2022-11-18T17:26:47.418Z,97287.38
2022-11-18T17:29:50.777Z,97290.00
2022-11-18T17:32:52.192Z,97283.00
2022-11-18T17:36:00.372Z,97282.09
2022-11-18T17:39:01.780Z,97283.00
2022-11-18T17:42:15.506Z,97285.59
2022-11-18T17:45:16.941Z,97279.53
2022-11-18T17:48:18.691Z,97283.03
2022-11-18T17:51:20.091Z,97284.72
2022-11-18T17:54:21.810Z,97286.47
2022-11-18T17:57:23.491Z,97290.81
2022-11-18T18:00:24.849Z,97286.50
2022-11-18T18:03:26.183Z,97282.09
2022-11-18T18:06:27.621Z,97282.09
2022-11-18T18:09:31.276Z,97284.78
2022-11-18T18:12:51.451Z,97287.38
2022-11-18T18:15:59.957Z,97285.69
2022-11-18T18:19:01.665Z,97289.16
2022-11-18T18:22:03.025Z,97293.50
2022-11-18T18:25:04.507Z,97297.88
2022-11-18T18:28:06.205Z,97295.28
2022-11-18T18:31:08.141Z,97298.72
2022-11-18T18:34:09.510Z,97303.94
2022-11-18T18:37:10.871Z,97295.28
2022-11-18T18:40:13.635Z,97297.03
2022-11-18T18:43:14.996Z,97301.34
2022-11-18T18:46:29.306Z,97313.44
2022-11-18T18:49:31.191Z,97304.75
2022-11-18T18:52:32.525Z,97308.25
2022-11-18T18:55:33.830Z,97303.91
2022-11-18T18:58:35.251Z,97298.78
2022-11-18T19:01:36.719Z,97300.53
2022-11-18T19:04:39.595Z,97310.03
2022-11-18T19:07:41.940Z,97310.88
2022-11-18T19:10:43.332Z,97310.09
2022-11-18T19:13:44.662Z,97306.59
2022-11-18T19:16:46.053Z,97312.66
2022-11-18T19:20:06.145Z,97313.53
2022-11-18T19:23:10.306Z,97326.53
2022-11-18T19:26:12.195Z,97323.06
2022-11-18T19:29:13.532Z,97320.44
2022-11-18T19:32:14.906Z,97324.75
2022-11-18T19:35:16.262Z,97337.75
2022-11-18T19:38:17.616Z,97323.97
2022-11-18T19:41:18.955Z,97323.09
2022-11-18T19:44:20.328Z,97325.66
2022-11-18T19:47:21.710Z,97322.25
2022-11-18T19:50:23.030Z,97321.41
2022-11-18T19:53:33.783Z,97324.91
2022-11-18T19:56:35.163Z,97317.97
2022-11-18T19:59:36.597Z,97318.84
2022-11-18T20:02:38.370Z,97327.50
2022-11-18T20:05:51.934Z,97322.28
2022-11-18T20:08:53.874Z,97329.25
2022-11-18T20:11:55.214Z,97324.00
2022-11-18T20:14:56.594Z,97322.25
2022-11-18T20:17:57.933Z,97329.19
2022-11-18T20:21:03.859Z,97326.63
2022-11-18T20:24:05.942Z,97338.75
2022-11-18T20:27:07.294Z,97325.75
2022-11-18T20:30:08.937Z,97330.03
2022-11-18T20:33:10.608Z,97323.09
2022-11-18T20:36:12.661Z,97330.06
2022-11-18T20:39:14.707Z,97338.75
2022-11-18T20:42:34.793Z,97336.13
2022-11-18T20:45:36.174Z,97336.09
2022-11-18T20:48:37.769Z,97349.06
2022-11-18T20:51:39.144Z,97341.28
2022-11-18T20:54:40.496Z,97336.06
2022-11-18T20:57:41.864Z,97337.81
2022-11-18T21:00:43.409Z,97347.31
2022-11-18T21:03:48.754Z,97350.72
2022-11-18T21:06:52.185Z,97355.91
2022-11-18T21:09:53.545Z,97349.88
2022-11-18T21:13:13.613Z,97349.00
2022-11-18T21:16:15.033Z,97349.00
2022-11-18T21:19:16.904Z,97357.69
2022-11-18T21:22:18.464Z,97356.81
2022-11-18T21:25:19.787Z,97360.28
2022-11-18T21:28:21.143Z,97362.91
2022-11-18T21:31:23.461Z,97361.13
2022-11-18T21:34:24.921Z,97367.19
2022-11-18T21:37:26.241Z,97365.50
2022-11-18T21:40:27.541Z,97368.06
2022-11-18T21:44:03.376Z,97362.00
2022-11-18T21:46:52.209Z,97343.88
2022-11-18T21:49:53.619Z,97352.50
2022-11-18T21:52:54.979Z,97356.81
2022-11-18T21:56:00.069Z,97359.50
2022-11-18T21:59:01.540Z,97373.34
2022-11-18T22:02:02.924Z,97376.78
2022-11-18T22:05:06.962Z,97370.75
2022-11-18T22:08:10.823Z,97377.66
2022-11-18T22:11:12.795Z,97368.19
2022-11-18T22:14:14.279Z,97365.56
2022-11-18T22:17:15.655Z,97366.38
2022-11-18T22:20:16.985Z,97365.50
2022-11-18T22:23:20.170Z,97362.06
2022-11-18T22:26:21.534Z,97365.56
2022-11-18T22:29:24.298Z,97360.34
2022-11-18T22:32:25.617Z,97366.47
2022-11-18T22:35:26.968Z,97370.75
2022-11-18T22:38:28.648Z,97365.53
2022-11-18T22:41:48.775Z,97361.22
2022-11-18T22:44:50.163Z,97362.94
2022-11-18T22:47:51.556Z,97372.50
2022-11-18T22:50:59.646Z,97374.22
2022-11-18T22:54:30.641Z,97368.16
2022-11-18T22:57:22.445Z,97376.78
2022-11-18T23:00:24.345Z,97372.47
2022-11-18T23:03:25.671Z,97366.44
2022-11-18T23:06:26.987Z,97379.41
2022-11-18T23:09:28.343Z,97373.31
2022-11-18T23:12:48.496Z,97373.34
2022-11-18T23:15:49.836Z,97372.50
2022-11-18T23:18:51.185Z,97375.06
2022-11-18T23:21:52.525Z,97376.78
2022-11-18T23:24:53.972Z,97375.94
2022-11-18T23:27:55.335Z,97376.81
2022-11-18T23:31:12.977Z,97382.88
2022-11-18T23:34:14.738Z,97383.78
2022-11-18T23:37:16.182Z,97382.00
2022-11-18T23:40:17.633Z,97379.41
2022-11-18T23:43:18.992Z,97383.78
2022-11-18T23:46:20.393Z,97384.63
2022-11-18T23:49:21.729Z,97378.56
2022-11-18T23:52:23.096Z,97375.13
2022-11-18T23:55:24.660Z,97386.31
2022-11-18T23:58:26.049Z,97380.25
